createdAt,value
2022-10-30T00:02:02.504Z,58.30
2022-10-30T00:04:30.842Z,51.15
2022-10-30T00:06:57.781Z,50.75
2022-10-30T00:09:24.518Z,51.95
2022-10-30T00:11:51.253Z,52.65
2022-10-30T00:14:18.366Z,55.88
2022-10-30T00:16:45.125Z,52.97
2022-10-30T00:19:11.901Z,48.53
2022-10-30T00:21:38.871Z,60.90
2022-10-30T00:24:07.387Z,54.95
2022-10-30T00:26:34.145Z,57.42
2022-10-30T00:29:01.105Z,55.92
2022-10-30T00:31:27.866Z,61.80
2022-10-30T00:33:55.262Z,57.45
2022-10-30T00:36:23.432Z,49.05
2022-10-30T00:38:50.481Z,63.10
2022-10-30T00:41:20.677Z,58.45
2022-10-30T00:43:47.825Z,54.90
2022-10-30T00:46:35.414Z,59.72
2022-10-30T00:49:23.434Z,57.05
2022-10-30T00:51:53.842Z,57.60
2022-10-30T00:54:22.534Z,55.35
2022-10-30T00:56:50.823Z,52.20
2022-10-30T00:59:23.646Z,56.92
2022-10-30T01:01:51.908Z,50.25
2022-10-30T01:04:19.041Z,45.42
2022-10-30T01:06:48.525Z,53.63
2022-10-30T01:09:15.935Z,47.35
2022-10-30T01:11:42.750Z,52.25
2022-10-30T01:14:12.701Z,46.85
2022-10-30T01:17:05.495Z,47.17
2022-10-30T01:19:56.668Z,50.50
2022-10-30T01:23:01.272Z,53.03
2022-10-30T01:28:16.078Z,51.45
2022-10-30T01:30:57.977Z,49.00
2022-10-30T01:33:41.473Z,47.08
2022-10-30T01:36:41.239Z,50.30
2022-10-30T01:39:14.146Z,47.85
2022-10-30T01:41:41.197Z,49.67
2022-10-30T01:44:34.282Z,45.67
2022-10-30T01:47:13.081Z,50.08
2022-10-30T01:50:09.854Z,45.63
2022-10-30T01:52:46.474Z,49.47
2022-10-30T01:55:44.284Z,51.05
2022-10-30T01:58:22.758Z,50.00
2022-10-30T02:00:56.806Z,54.20
2022-10-30T02:03:24.911Z,41.50
2022-10-30T02:05:53.637Z,47.08
2022-10-30T02:08:21.687Z,50.05
2022-10-30T02:10:51.378Z,49.20
2022-10-30T02:13:18.403Z,46.83
2022-10-30T02:15:47.030Z,46.92
2022-10-30T02:18:14.073Z,41.97
2022-10-30T02:20:41.068Z,42.08
2022-10-30T02:23:09.182Z,42.17
2022-10-30T02:25:36.583Z,36.35
2022-10-30T02:28:03.425Z,34.42
2022-10-30T02:30:30.191Z,32.38
2022-10-30T02:32:57.515Z,31.15
2022-10-30T02:35:24.565Z,36.28
2022-10-30T02:37:51.295Z,31.90
2022-10-30T02:40:18.277Z,31.20
2022-10-30T02:42:45.090Z,30.10
2022-10-30T02:45:11.918Z,31.55
2022-10-30T02:47:38.935Z,32.65
2022-10-30T02:50:06.475Z,30.98
2022-10-30T02:52:33.216Z,30.75
2022-10-30T02:55:00.361Z,27.42
2022-10-30T02:57:27.145Z,28.20
2022-10-30T02:59:53.887Z,27.23
2022-10-30T03:02:20.933Z,30.42
2022-10-30T03:04:47.691Z,33.08
2022-10-30T03:07:14.454Z,27.00
2022-10-30T03:09:41.540Z,33.00
2022-10-30T03:12:08.544Z,30.80
2022-10-30T03:14:35.265Z,34.05
2022-10-30T03:17:02.194Z,28.25
2022-10-30T03:19:28.998Z,34.75
2022-10-30T03:21:55.761Z,30.05
2022-10-30T03:24:22.759Z,29.17
2022-10-30T03:26:49.514Z,27.08
2022-10-30T03:29:16.297Z,37.40
2022-10-30T03:31:43.261Z,32.58
2022-10-30T03:34:10.058Z,32.88
2022-10-30T03:36:36.831Z,34.13
2022-10-30T03:39:04.483Z,31.90
2022-10-30T03:41:31.341Z,32.33
2022-10-30T03:43:58.095Z,39.63
2022-10-30T03:46:25.120Z,32.38
2022-10-30T03:48:51.916Z,35.97
2022-10-30T03:51:18.789Z,35.40
2022-10-30T03:53:45.775Z,37.17
2022-10-30T03:56:12.529Z,32.85
2022-10-30T03:58:39.240Z,29.20
2022-10-30T04:01:07.662Z,35.35
2022-10-30T04:03:34.641Z,30.67
2022-10-30T04:06:01.717Z,30.45
2022-10-30T04:08:29.021Z,28.33
2022-10-30T04:10:55.783Z,27.77
2022-10-30T04:13:22.914Z,27.75
2022-10-30T04:15:56.039Z,28.05
2022-10-30T04:18:25.365Z,31.42
2022-10-30T04:20:52.113Z,29.17
2022-10-30T04:23:20.292Z,26.45
2022-10-30T04:25:47.615Z,28.65
2022-10-30T04:28:14.660Z,28.65
2022-10-30T04:30:42.241Z,25.05
2022-10-30T04:33:11.717Z,25.45
2022-10-30T04:35:39.225Z,28.23
2022-10-30T04:38:08.513Z,32.60
2022-10-30T04:40:37.923Z,27.25
2022-10-30T04:43:05.388Z,26.85
2022-10-30T04:45:32.179Z,33.35
2022-10-30T04:48:08.178Z,28.70
2022-10-30T04:50:35.334Z,34.40
2022-10-30T04:53:14.267Z,34.20
2022-10-30T04:55:41.346Z,33.85
2022-10-30T04:58:09.428Z,34.80
2022-10-30T05:00:36.673Z,36.45
2022-10-30T05:03:03.826Z,39.65
2022-10-30T05:05:31.307Z,36.25
2022-10-30T05:07:58.311Z,35.88
2022-10-30T05:10:25.747Z,36.00
2022-10-30T05:12:54.349Z,36.92
2022-10-30T05:15:21.593Z,34.17
2022-10-30T05:17:53.275Z,36.22
2022-10-30T05:20:20.243Z,31.05
2022-10-30T05:22:54.819Z,40.42
2022-10-30T05:25:21.716Z,33.65
2022-10-30T05:27:48.697Z,36.42
2022-10-30T05:30:15.464Z,37.65
2022-10-30T05:32:42.221Z,32.85
2022-10-30T05:35:09.200Z,31.13
2022-10-30T05:37:36.187Z,33.58
2022-10-30T05:40:03.129Z,34.67
2022-10-30T05:42:30.106Z,36.97
2022-10-30T05:45:01.797Z,34.03
2022-10-30T05:47:29.497Z,27.65
2022-10-30T05:49:56.309Z,28.77
2022-10-30T05:52:23.256Z,36.92
2022-10-30T05:54:50.012Z,36.20
2022-10-30T05:57:16.754Z,38.40
2022-10-30T05:59:43.696Z,40.08
2022-10-30T06:02:10.472Z,35.83
2022-10-30T06:04:37.567Z,33.33
2022-10-30T06:07:04.305Z,36.40
2022-10-30T06:09:31.043Z,43.22
2022-10-30T06:11:58.631Z,35.85
2022-10-30T06:14:25.467Z,44.20
2022-10-30T06:16:52.429Z,43.00
2022-10-30T06:19:19.331Z,36.83
2022-10-30T06:21:46.905Z,41.40
2022-10-30T06:24:14.246Z,34.40
2022-10-30T06:26:41.300Z,34.10
2022-10-30T06:29:08.037Z,41.78
2022-10-30T06:31:35.095Z,35.60
2022-10-30T06:34:01.864Z,43.90
2022-10-30T06:36:28.740Z,38.67
2022-10-30T06:38:55.687Z,39.53
2022-10-30T06:41:26.064Z,48.85
2022-10-30T06:43:57.194Z,38.75
2022-10-30T06:46:27.087Z,46.05
2022-10-30T06:48:57.682Z,48.30
2022-10-30T06:51:25.055Z,45.80
2022-10-30T06:53:51.802Z,44.05
2022-10-30T06:56:18.547Z,52.70
2022-10-30T06:58:45.545Z,46.05
2022-10-30T07:01:12.342Z,47.45
2022-10-30T07:03:39.146Z,38.22
2022-10-30T07:06:06.640Z,43.35
2022-10-30T07:08:33.553Z,43.15
2022-10-30T07:11:00.315Z,43.95
2022-10-30T07:13:27.343Z,42.97
2022-10-30T07:15:54.126Z,43.60
2022-10-30T07:18:20.961Z,48.15
2022-10-30T07:20:48.016Z,46.95
2022-10-30T07:23:14.819Z,44.83
2022-10-30T07:25:41.575Z,46.55
2022-10-30T07:28:08.530Z,44.63
2022-10-30T07:30:35.386Z,45.33
2022-10-30T07:33:05.379Z,37.13
2022-10-30T07:35:35.795Z,50.13
2022-10-30T07:38:07.648Z,45.17
2022-10-30T07:40:34.887Z,44.47
2022-10-30T07:43:03.431Z,50.38
2022-10-30T07:45:31.418Z,43.80
2022-10-30T07:47:58.632Z,51.60
2022-10-30T07:50:25.711Z,45.42
2022-10-30T07:52:52.455Z,46.53
2022-10-30T07:55:19.443Z,42.03
2022-10-30T07:57:46.262Z,46.95
2022-10-30T08:00:14.737Z,48.63
2022-10-30T08:02:42.176Z,42.75
2022-10-30T08:05:10.049Z,48.55
2022-10-30T08:07:38.493Z,49.38
2022-10-30T08:10:06.617Z,46.67
2022-10-30T08:12:34.380Z,44.90
2022-10-30T08:15:01.609Z,45.20
2022-10-30T08:17:28.923Z,38.70
2022-10-30T08:19:57.217Z,45.33
2022-10-30T08:22:24.828Z,39.13
2022-10-30T08:24:51.798Z,43.60
2022-10-30T08:27:18.600Z,40.92
2022-10-30T08:29:45.631Z,42.83
2022-10-30T08:32:12.399Z,42.35
2022-10-30T08:34:40.918Z,44.65
2022-10-30T08:37:10.661Z,44.55
2022-10-30T08:39:37.478Z,40.00
2022-10-30T08:42:04.550Z,49.30
2022-10-30T08:44:31.310Z,42.85
2022-10-30T08:46:58.267Z,43.03
2022-10-30T08:49:25.099Z,41.13
2022-10-30T08:51:52.283Z,43.85
2022-10-30T08:54:19.087Z,45.53
2022-10-30T08:56:46.098Z,41.75
2022-10-30T08:59:17.118Z,45.78
2022-10-30T09:01:46.046Z,47.10
2022-10-30T09:04:12.837Z,38.33
2022-10-30T09:06:39.577Z,42.65
2022-10-30T09:09:06.603Z,38.33
2022-10-30T09:11:33.333Z,42.95
2022-10-30T09:14:00.105Z,47.70
2022-10-30T09:16:27.095Z,50.42
2022-10-30T09:18:53.823Z,42.47
2022-10-30T09:21:20.577Z,45.13
2022-10-30T09:23:47.557Z,44.25
2022-10-30T09:26:16.976Z,39.28
2022-10-30T09:28:53.103Z,48.88
2022-10-30T09:31:19.826Z,39.35
2022-10-30T09:33:46.796Z,42.78
2022-10-30T09:36:16.776Z,47.67
2022-10-30T09:38:46.458Z,49.30
2022-10-30T09:41:20.034Z,40.13
2022-10-30T09:44:16.243Z,40.83
2022-10-30T09:47:12.616Z,32.92
2022-10-30T09:49:51.454Z,38.95
2022-10-30T09:53:03.471Z,40.25
2022-10-30T09:56:03.090Z,42.65
2022-10-30T09:58:35.958Z,35.30
2022-10-30T10:01:28.167Z,37.40
2022-10-30T10:03:57.956Z,38.70
2022-10-30T10:06:25.932Z,34.85
2022-10-30T10:09:09.071Z,35.88
2022-10-30T10:11:40.149Z,34.67
2022-10-30T10:14:18.861Z,38.13
2022-10-30T10:16:51.781Z,34.53
2022-10-30T10:19:44.488Z,36.90
2022-10-30T10:22:17.339Z,34.70
2022-10-30T10:24:47.562Z,38.42
2022-10-30T10:27:33.182Z,42.70
2022-10-30T10:30:25.898Z,37.63
2022-10-30T10:33:32.929Z,36.65
2022-10-30T10:36:38.381Z,38.33
2022-10-30T10:39:40.348Z,39.35
2022-10-30T10:42:29.000Z,43.42
2022-10-30T10:45:17.684Z,37.22
2022-10-30T10:48:22.464Z,39.72
2022-10-30T10:51:01.570Z,44.40
2022-10-30T10:53:38.511Z,37.35
2022-10-30T10:56:05.595Z,36.08
2022-10-30T10:58:49.849Z,33.63
2022-10-30T11:01:22.781Z,37.80
2022-10-30T11:03:52.944Z,41.13
2022-10-30T11:06:27.853Z,36.22
2022-10-30T11:09:11.836Z,32.63
2022-10-30T11:11:39.054Z,34.47
2022-10-30T11:14:18.854Z,36.33
2022-10-30T11:17:19.811Z,36.58
2022-10-30T11:19:52.039Z,35.35
2022-10-30T11:22:29.351Z,35.72
2022-10-30T11:24:56.110Z,39.38
2022-10-30T11:27:22.984Z,35.05
2022-10-30T11:29:52.699Z,34.22
2022-10-30T11:32:22.673Z,33.90
2022-10-30T11:35:12.009Z,35.95
2022-10-30T11:37:41.005Z,31.45
2022-10-30T11:40:23.013Z,28.00
2022-10-30T11:42:57.844Z,33.25
2022-10-30T11:45:45.409Z,32.38
2022-10-30T11:48:24.387Z,34.75
2022-10-30T11:50:56.440Z,28.85
2022-10-30T11:53:30.694Z,32.80
2022-10-30T11:55:58.927Z,33.92
2022-10-30T11:58:37.284Z,31.58
2022-10-30T12:01:13.614Z,31.30
2022-10-30T12:03:41.763Z,33.30
2022-10-30T12:06:20.907Z,32.40
2022-10-30T12:09:10.341Z,28.88
2022-10-30T12:11:39.935Z,30.00
2022-10-30T12:14:06.760Z,32.28
2022-10-30T12:16:33.922Z,36.17
2022-10-30T12:19:15.162Z,34.75
2022-10-30T12:21:48.574Z,27.58
2022-10-30T12:24:30.404Z,30.40
2022-10-30T12:27:00.835Z,27.45
2022-10-30T12:30:06.789Z,30.08
2022-10-30T12:32:40.698Z,29.50
2022-10-30T12:35:38.589Z,27.85
2022-10-30T12:38:13.807Z,34.92
2022-10-30T12:41:09.829Z,29.38
2022-10-30T12:43:36.613Z,29.73
2022-10-30T12:46:16.295Z,27.98
2022-10-30T12:48:56.279Z,28.58
2022-10-30T12:51:32.469Z,32.38
2022-10-30T12:54:07.314Z,31.42
2022-10-30T12:56:39.995Z,27.10
2022-10-30T12:59:35.043Z,31.27
2022-10-30T13:02:32.049Z,33.53
2022-10-30T13:05:06.968Z,33.10
2022-10-30T13:07:45.681Z,32.40
2022-10-30T13:10:31.009Z,34.75
2022-10-30T13:13:05.314Z,39.83
2022-10-30T13:15:45.013Z,29.13
2022-10-30T13:18:16.780Z,36.90
2022-10-30T13:20:55.834Z,26.92
2022-10-30T13:23:29.924Z,28.58
2022-10-30T13:26:09.773Z,31.10
2022-10-30T13:28:46.451Z,31.42
2022-10-30T13:31:22.683Z,28.30
2022-10-30T13:34:15.804Z,28.90
2022-10-30T13:36:50.902Z,34.78
2022-10-30T13:39:39.088Z,30.17
2022-10-30T13:42:20.682Z,33.10
2022-10-30T13:45:15.356Z,33.08
2022-10-30T13:47:42.074Z,30.15
2022-10-30T13:50:26.057Z,29.23
2022-10-30T13:52:58.441Z,31.02
2022-10-30T13:55:31.077Z,30.33
2022-10-30T13:58:21.031Z,28.02
2022-10-30T14:00:51.087Z,30.50
2022-10-30T14:03:45.770Z,32.58
2022-10-30T14:06:25.175Z,28.80
2022-10-30T14:09:10.813Z,30.50
2022-10-30T14:11:38.112Z,27.58
2022-10-30T14:14:24.038Z,35.47
2022-10-30T14:17:16.762Z,30.67
2022-10-30T14:20:14.045Z,33.45
2022-10-30T14:22:41.668Z,28.67
2022-10-30T14:25:15.908Z,30.40
2022-10-30T14:27:43.678Z,33.47
2022-10-30T14:30:20.221Z,27.67
2022-10-30T14:32:53.763Z,27.00
2022-10-30T14:35:38.197Z,33.65
2022-10-30T14:38:07.851Z,30.25
2022-10-30T14:40:46.126Z,30.25
2022-10-30T14:43:23.751Z,31.00
2022-10-30T14:46:00.542Z,37.90
2022-10-30T14:48:45.431Z,33.90
2022-10-30T14:51:21.346Z,32.90
2022-10-30T14:53:56.574Z,37.08
2022-10-30T14:56:45.204Z,33.40
2022-10-30T14:59:15.283Z,33.53
2022-10-30T15:01:50.456Z,32.95
2022-10-30T15:04:25.980Z,33.78
2022-10-30T15:07:24.631Z,37.40
2022-10-30T15:10:03.488Z,41.05
2022-10-30T15:12:56.953Z,38.40
2022-10-30T15:15:29.899Z,35.10
2022-10-30T15:18:01.380Z,35.80
2022-10-30T15:20:33.952Z,39.28
2022-10-30T15:23:04.544Z,41.15
2022-10-30T15:25:45.903Z,36.97
2022-10-30T15:28:21.184Z,35.20
2022-10-30T15:31:17.466Z,38.47
2022-10-30T15:33:44.569Z,40.38
2022-10-30T15:36:22.511Z,36.33
2022-10-30T15:39:08.919Z,38.25
2022-10-30T15:41:43.880Z,38.85
2022-10-30T15:44:14.618Z,37.33
2022-10-30T15:46:46.090Z,36.50
2022-10-30T15:49:19.549Z,42.28
2022-10-30T15:51:47.539Z,38.28
2022-10-30T15:54:19.336Z,37.10
2022-10-30T15:57:21.552Z,39.45
2022-10-30T15:59:37.746Z,39.63
2022-10-30T16:02:21.439Z,40.72
2022-10-30T16:04:48.427Z,40.92
2022-10-30T16:07:21.908Z,41.33
2022-10-30T16:10:09.879Z,39.35
2022-10-30T16:12:36.918Z,43.67
2022-10-30T16:15:24.327Z,40.33
2022-10-30T16:18:08.491Z,40.58
2022-10-30T16:23:04.674Z,38.85
2022-10-30T16:25:34.134Z,44.83
2022-10-30T16:28:01.234Z,37.30
2022-10-30T16:30:31.970Z,47.47
2022-10-30T16:32:59.344Z,35.70
2022-10-30T16:35:27.375Z,45.25
2022-10-30T16:37:55.950Z,39.33
2022-10-30T16:40:28.082Z,41.15
2022-10-30T16:43:01.570Z,35.88
2022-10-30T16:45:29.137Z,48.70
2022-10-30T16:48:05.796Z,38.58
2022-10-30T16:50:37.597Z,36.08
2022-10-30T16:53:06.551Z,40.08
2022-10-30T16:55:33.708Z,43.22
2022-10-30T16:58:00.721Z,38.30
2022-10-30T17:00:32.752Z,37.55
2022-10-30T17:03:08.913Z,40.42
2022-10-30T17:05:37.105Z,40.78
2022-10-30T17:08:06.062Z,39.58
2022-10-30T17:10:32.854Z,34.20
2022-10-30T17:13:31.037Z,39.70
2022-10-30T17:15:59.200Z,39.15
2022-10-30T17:18:31.458Z,38.55
2022-10-30T17:21:10.562Z,39.85
2022-10-30T17:23:43.890Z,37.58
2022-10-30T17:26:12.596Z,38.55
2022-10-30T17:28:39.436Z,41.92
2022-10-30T17:31:18.538Z,41.47
2022-10-30T17:33:47.055Z,40.75
2022-10-30T17:36:14.245Z,37.85
2022-10-30T17:38:40.990Z,36.42
2022-10-30T17:41:09.999Z,33.63
2022-10-30T17:43:49.591Z,39.15
2022-10-30T17:46:20.328Z,33.20
2022-10-30T17:48:47.744Z,35.83
2022-10-30T17:51:16.240Z,42.65
2022-10-30T17:53:44.177Z,40.03
2022-10-30T17:56:15.255Z,31.42
2022-10-30T17:58:42.110Z,34.25
2022-10-30T18:01:14.640Z,53.08
2022-10-30T18:03:41.574Z,35.22
2022-10-30T18:06:16.241Z,39.50
2022-10-30T18:08:46.401Z,40.08
2022-10-30T18:11:22.024Z,37.38
2022-10-30T18:13:50.493Z,41.25
2022-10-30T18:16:18.897Z,34.45
2022-10-30T18:18:46.011Z,34.95
2022-10-30T18:21:13.998Z,35.63
2022-10-30T18:23:56.458Z,35.63
2022-10-30T18:26:26.974Z,41.55
2022-10-30T18:28:54.884Z,37.80
2022-10-30T18:31:24.295Z,36.55
2022-10-30T18:33:51.670Z,39.10
2022-10-30T18:36:21.587Z,41.53
2022-10-30T18:38:48.731Z,37.60
2022-10-30T18:41:37.733Z,36.70
2022-10-30T18:44:05.062Z,38.95
2022-10-30T18:46:34.023Z,36.47
2022-10-30T18:49:00.843Z,34.60
2022-10-30T18:51:28.363Z,38.05
2022-10-30T18:53:57.034Z,37.08
2022-10-30T18:56:29.602Z,39.92
2022-10-30T18:59:01.759Z,36.72
2022-10-30T19:01:31.640Z,38.92
2022-10-30T19:04:01.211Z,37.45
2022-10-30T19:06:28.434Z,41.92
2022-10-30T19:08:55.540Z,32.50
2022-10-30T19:11:25.120Z,39.20
2022-10-30T19:13:54.016Z,34.08
2022-10-30T19:16:24.508Z,38.45
2022-10-30T19:18:51.573Z,38.45
2022-10-30T19:21:21.812Z,38.75
2022-10-30T19:23:49.498Z,37.20
2022-10-30T19:26:19.902Z,38.67
2022-10-30T19:28:48.307Z,37.03
2022-10-30T19:31:17.264Z,38.28
2022-10-30T19:33:45.187Z,39.35
2022-10-30T19:36:36.332Z,38.17
2022-10-30T19:39:10.173Z,37.53
2022-10-30T19:41:37.474Z,37.72
2022-10-30T19:44:04.894Z,39.67
2022-10-30T19:46:31.670Z,35.67
2022-10-30T19:48:59.591Z,37.33
2022-10-30T19:51:28.571Z,39.83
2022-10-30T19:53:55.573Z,41.10
2022-10-30T19:56:22.589Z,37.00
2022-10-30T19:58:50.199Z,34.45
2022-10-30T20:01:19.706Z,42.08
2022-10-30T20:03:46.731Z,43.70
2022-10-30T20:06:14.293Z,38.78
2022-10-30T20:08:41.337Z,38.92
2022-10-30T20:11:08.415Z,39.15
2022-10-30T20:13:37.063Z,44.78
2022-10-30T20:16:05.271Z,44.13
2022-10-30T20:18:34.538Z,49.75
2022-10-30T20:21:04.259Z,48.00
2022-10-30T20:23:31.320Z,42.90
2022-10-30T20:26:04.147Z,47.45
2022-10-30T20:28:40.848Z,43.08
2022-10-30T20:31:11.030Z,39.25
2022-10-30T20:33:38.111Z,41.08
2022-10-30T20:36:05.409Z,39.30
2022-10-30T20:38:33.762Z,45.58
2022-10-30T20:41:03.458Z,45.28
2022-10-30T20:43:35.359Z,39.33
2022-10-30T20:46:04.479Z,45.95
2022-10-30T20:48:31.742Z,38.90
2022-10-30T20:51:00.121Z,42.97
2022-10-30T20:53:27.413Z,45.70
2022-10-30T20:55:54.529Z,41.55
2022-10-30T20:58:21.723Z,45.60
2022-10-30T21:00:49.072Z,47.45
2022-10-30T21:03:16.390Z,43.75
2022-10-30T21:05:45.666Z,45.55
2022-10-30T21:08:14.129Z,43.30
2022-10-30T21:10:42.025Z,37.75
2022-10-30T21:13:10.383Z,45.08
2022-10-30T21:15:42.537Z,43.40
2022-10-30T21:18:11.292Z,46.90
2022-10-30T21:20:38.745Z,45.42
2022-10-30T21:23:06.197Z,39.20
2022-10-30T21:25:33.646Z,42.53
2022-10-30T21:28:00.974Z,46.67
2022-10-30T21:30:28.450Z,41.72
2022-10-30T21:32:55.405Z,49.45
2022-10-30T21:35:22.290Z,46.38
2022-10-30T21:37:49.141Z,47.90
2022-10-30T21:40:16.225Z,42.58
2022-10-30T21:42:42.974Z,61.80
2022-10-30T21:45:10.162Z,46.58
2022-10-30T21:47:37.320Z,50.33
2022-10-30T21:50:07.750Z,45.83
2022-10-30T21:55:04.967Z,47.92
2022-10-30T21:57:31.786Z,48.70
2022-10-30T22:00:01.631Z,45.55
2022-10-30T22:02:32.849Z,47.95
2022-10-30T22:04:59.945Z,49.63
2022-10-30T22:07:26.735Z,48.40
2022-10-30T22:09:54.124Z,48.67
2022-10-30T22:12:21.043Z,47.83
2022-10-30T22:14:47.813Z,49.72
2022-10-30T22:17:14.553Z,47.85
2022-10-30T22:19:41.599Z,52.83
2022-10-30T22:22:09.158Z,50.95
2022-10-30T22:24:35.993Z,49.35
2022-10-30T22:27:03.190Z,55.72
2022-10-30T22:29:29.918Z,54.70
2022-10-30T22:31:56.663Z,53.00
2022-10-30T22:34:23.585Z,54.33
2022-10-30T22:36:50.298Z,56.00
2022-10-30T22:39:18.266Z,57.30
2022-10-30T22:41:45.283Z,56.33
2022-10-30T22:44:14.013Z,47.40
2022-10-30T22:46:41.191Z,50.42
2022-10-30T22:49:08.668Z,47.55
2022-10-30T22:51:37.452Z,51.58
2022-10-30T22:54:06.024Z,45.47
2022-10-30T22:56:34.998Z,50.30
2022-10-30T22:59:04.070Z,46.70
2022-10-30T23:01:33.105Z,52.70
2022-10-30T23:04:02.154Z,48.38
2022-10-30T23:06:30.553Z,54.13
2022-10-30T23:08:59.281Z,55.25
2022-10-30T23:11:27.209Z,46.22
2022-10-30T23:13:54.551Z,58.72
2022-10-30T23:16:24.168Z,52.03
2022-10-30T23:18:51.634Z,49.78
2022-10-30T23:21:24.333Z,61.22
2022-10-30T23:23:52.152Z,61.40
2022-10-30T23:26:24.260Z,56.63
2022-10-30T23:28:53.071Z,48.72
2022-10-30T23:31:19.823Z,51.53
2022-10-30T23:33:48.659Z,52.47
2022-10-30T23:36:15.999Z,59.70
2022-10-30T23:38:43.220Z,56.05
2022-10-30T23:41:10.098Z,56.50
2022-10-30T23:43:37.063Z,53.28
2022-10-30T23:46:03.912Z,49.03
2022-10-30T23:48:30.884Z,51.50
2022-10-30T23:50:57.634Z,56.65
2022-10-30T23:53:24.640Z,58.03
2022-10-30T23:55:55.239Z,62.50
2022-10-30T23:58:23.191Z,51.30
